createdAt,value
2022-11-22T00:00:31.085Z,92171.11
2022-11-22T00:01:19.771Z,92171.08
2022-11-22T00:02:05.636Z,92163.60
2022-11-22T00:02:43.720Z,92162.02
2022-11-22T00:03:24.775Z,92151.27
2022-11-22T00:04:01.803Z,92157.60
2022-11-22T00:04:35.505Z,92158.31
2022-11-22T00:05:08.987Z,92156.89
2022-11-22T00:05:42.237Z,92147.73
2022-11-22T00:06:16.045Z,92153.80
2022-11-22T00:07:05.748Z,92151.77
2022-11-22T00:07:44.957Z,92127.27
2022-11-22T00:08:20.483Z,92148.88
2022-11-22T00:08:57.265Z,92148.48
2022-11-22T00:09:31.402Z,92147.10
2022-11-22T00:10:12.649Z,92144.73
2022-11-22T00:10:52.126Z,92120.55
2022-11-22T00:11:28.387Z,92144.45
2022-11-22T00:12:01.631Z,92143.68
2022-11-22T00:12:35.437Z,92148.03
2022-11-22T00:13:09.122Z,92145.73
2022-11-22T00:13:42.525Z,92145.34
2022-11-22T00:14:16.091Z,92145.50
2022-11-22T00:14:53.931Z,92143.20
2022-11-22T00:15:30.660Z,92131.26
2022-11-22T00:16:07.190Z,92140.20
2022-11-22T00:16:42.801Z,92140.41
2022-11-22T00:17:18.503Z,92137.75
2022-11-22T00:17:56.085Z,92141.68
2022-11-22T00:18:30.083Z,92137.30
2022-11-22T00:19:04.204Z,92137.21
2022-11-22T00:19:39.624Z,92140.48
2022-11-22T00:20:14.417Z,92139.82
2022-11-22T00:20:47.819Z,92133.45
2022-11-22T00:21:27.929Z,92140.96
2022-11-22T00:22:01.883Z,92137.55
2022-11-22T00:22:41.096Z,92137.56
2022-11-22T00:23:17.451Z,92133.80
2022-11-22T00:23:54.974Z,92138.46
2022-11-22T00:24:28.295Z,92138.39
2022-11-22T00:25:01.788Z,92141.09
2022-11-22T00:25:35.295Z,92137.98
2022-11-22T00:26:12.400Z,92140.13
2022-11-22T00:26:45.682Z,92139.65
2022-11-22T00:27:19.914Z,92137.80
2022-11-22T00:27:53.681Z,92139.70
2022-11-22T00:28:27.120Z,92141.23
2022-11-22T00:29:00.346Z,92141.27
2022-11-22T00:29:35.491Z,92141.77
2022-11-22T00:30:09.885Z,92143.42
2022-11-22T00:30:46.224Z,92143.33
2022-11-22T00:31:22.480Z,92141.06
2022-11-22T00:31:55.870Z,92139.36
2022-11-22T00:32:29.568Z,92142.17
2022-11-22T00:33:05.625Z,92136.99
2022-11-22T00:33:38.970Z,92134.80
2022-11-22T00:34:15.761Z,92133.14
2022-11-22T00:34:49.532Z,92132.83
2022-11-22T00:35:30.969Z,92127.14
2022-11-22T00:36:04.951Z,92129.90
2022-11-22T00:36:42.503Z,92126.83
2022-11-22T00:37:22.847Z,92126.46
2022-11-22T00:37:59.662Z,92127.60
2022-11-22T00:38:36.191Z,92127.22
2022-11-22T00:39:09.587Z,92129.34
2022-11-22T00:39:43.008Z,92127.52
2022-11-22T00:40:16.356Z,92127.71
2022-11-22T00:40:49.790Z,92127.55
2022-11-22T00:41:25.911Z,92127.19
2022-11-22T00:41:59.500Z,92129.47
2022-11-22T00:42:33.016Z,92130.42
2022-11-22T00:43:06.922Z,92127.31
2022-11-22T00:43:40.802Z,92128.05
2022-11-22T00:44:16.635Z,92131.25
2022-11-22T00:44:50.142Z,92133.82
2022-11-22T00:45:24.578Z,92131.21
2022-11-22T00:45:57.749Z,92128.71
2022-11-22T00:46:31.051Z,92132.33
2022-11-22T00:47:04.463Z,92125.11
2022-11-22T00:47:37.746Z,92128.91
2022-11-22T00:48:11.456Z,92128.20
2022-11-22T00:48:44.730Z,92126.69
2022-11-22T00:49:18.636Z,92125.96
2022-11-22T00:49:53.627Z,92123.17
2022-11-22T00:50:30.864Z,92121.70
2022-11-22T00:51:04.851Z,92123.13
2022-11-22T00:51:38.661Z,92125.55
2022-11-22T00:52:14.562Z,92125.36
2022-11-22T00:52:47.940Z,92125.39
2022-11-22T00:53:23.361Z,92119.20
2022-11-22T00:53:56.886Z,92123.85
2022-11-22T00:54:30.152Z,92124.32
2022-11-22T00:55:04.006Z,92119.48
2022-11-22T00:55:37.380Z,92121.42
2022-11-22T00:56:13.584Z,92124.79
2022-11-22T00:56:47.284Z,92122.02
2022-11-22T00:57:20.616Z,92124.14
2022-11-22T00:58:00.005Z,92122.27
2022-11-22T00:58:33.385Z,92118.83
2022-11-22T00:59:07.212Z,92121.90
2022-11-22T00:59:40.440Z,92124.80
2022-11-22T01:00:14.168Z,92124.55
2022-11-22T01:00:50.969Z,92125.05
2022-11-22T01:01:27.029Z,92123.58
2022-11-22T01:02:00.534Z,92128.84
2022-11-22T01:02:33.835Z,92125.04
2022-11-22T01:03:11.937Z,92127.05
2022-11-22T01:03:46.831Z,92125.08
2022-11-22T01:04:20.071Z,92127.81
2022-11-22T01:04:57.423Z,92132.88
2022-11-22T01:05:33.718Z,92112.34
2022-11-22T01:06:09.762Z,92137.16
2022-11-22T01:06:45.764Z,92133.98
2022-11-22T01:07:22.860Z,92123.69
2022-11-22T01:07:58.650Z,92138.14
2022-11-22T01:08:33.923Z,92139.56
2022-11-22T01:09:08.149Z,92143.23
2022-11-22T01:09:42.767Z,92140.60
2022-11-22T01:10:16.281Z,92135.58
2022-11-22T01:10:55.960Z,92138.40
2022-11-22T01:11:30.280Z,92140.98
2022-11-22T01:12:03.904Z,92141.88
2022-11-22T01:12:37.446Z,92140.39
2022-11-22T01:13:12.720Z,92139.91
2022-11-22T01:13:49.252Z,92138.89
2022-11-22T01:14:24.804Z,92140.35
2022-11-22T01:14:58.295Z,92142.70
2022-11-22T01:15:32.480Z,92132.76
2022-11-22T01:16:08.896Z,92139.65
2022-11-22T01:16:42.911Z,92141.31
2022-11-22T01:17:16.212Z,92137.70
2022-11-22T01:17:58.119Z,92136.88
2022-11-22T01:18:32.726Z,92138.77
2022-11-22T01:19:06.974Z,92136.73
2022-11-22T01:19:43.421Z,92138.51
2022-11-22T01:20:17.430Z,92137.48
2022-11-22T01:20:52.493Z,92138.27
2022-11-22T01:21:26.366Z,92134.67
2022-11-22T01:22:00.737Z,92140.28
2022-11-22T01:22:34.198Z,92136.89
2022-11-22T01:23:07.653Z,92137.75
2022-11-22T01:23:41.027Z,92137.75
2022-11-22T01:24:15.152Z,92137.75
2022-11-22T01:24:51.568Z,92137.78
2022-11-22T01:25:29.053Z,92140.04
2022-11-22T01:26:06.240Z,92140.95
2022-11-22T01:26:39.675Z,92137.91
2022-11-22T01:27:14.767Z,92146.21
2022-11-22T01:27:48.575Z,92140.43
2022-11-22T01:28:25.141Z,92140.74
2022-11-22T01:29:01.133Z,92141.78
2022-11-22T01:29:34.705Z,92142.32
2022-11-22T01:30:12.357Z,92142.55
2022-11-22T01:30:55.866Z,92136.00
2022-11-22T01:31:30.310Z,92112.98
2022-11-22T01:32:04.001Z,92136.32
2022-11-22T01:32:37.371Z,92131.61
2022-11-22T01:33:11.521Z,92133.44
2022-11-22T01:33:47.670Z,92134.21
2022-11-22T01:34:21.075Z,92130.77
2022-11-22T01:34:56.450Z,92129.62
2022-11-22T01:35:29.848Z,92123.52
2022-11-22T01:36:03.389Z,92125.95
2022-11-22T01:36:36.859Z,92124.60
2022-11-22T01:37:10.222Z,92128.23
2022-11-22T01:37:43.538Z,92126.85
2022-11-22T01:38:17.006Z,92128.47
2022-11-22T01:38:52.677Z,92126.69
2022-11-22T01:39:26.050Z,92128.11
2022-11-22T01:39:59.445Z,92126.45
2022-11-22T01:40:32.727Z,92128.23
2022-11-22T01:41:07.236Z,92127.55
2022-11-22T01:41:40.492Z,92127.18
2022-11-22T01:42:15.911Z,92128.95
2022-11-22T01:43:00.496Z,92127.16
2022-11-22T01:43:33.937Z,92126.19
2022-11-22T01:44:26.606Z,92127.86
2022-11-22T01:45:34.929Z,92126.42
2022-11-22T01:46:16.362Z,92124.30
2022-11-22T01:46:54.286Z,92124.42
2022-11-22T01:47:27.777Z,92120.61
2022-11-22T01:48:26.525Z,92124.26
2022-11-22T01:49:18.580Z,92121.92
2022-11-22T01:49:58.504Z,92119.73
2022-11-22T01:50:35.716Z,92115.20
2022-11-22T01:51:26.305Z,92116.70
2022-11-22T01:52:06.240Z,92117.68
2022-11-22T01:52:42.426Z,92117.38
2022-11-22T01:53:24.592Z,92119.51
2022-11-22T01:54:02.909Z,92119.23
2022-11-22T01:54:39.996Z,92117.88
2022-11-22T01:55:14.531Z,92116.26
2022-11-22T01:55:52.004Z,92118.70
2022-11-22T01:56:27.941Z,92118.48
2022-11-22T01:57:08.554Z,92115.07
2022-11-22T01:57:44.331Z,92117.63
2022-11-22T01:58:19.974Z,92102.73
2022-11-22T01:58:58.764Z,92113.48
2022-11-22T01:59:35.017Z,92110.98
2022-11-22T02:00:14.364Z,92113.23
2022-11-22T02:00:53.868Z,92107.21
2022-11-22T02:01:28.470Z,92107.88
2022-11-22T02:02:06.204Z,92106.50
2022-11-22T02:02:42.310Z,92104.43
2022-11-22T02:03:24.456Z,92106.16
2022-11-22T02:04:03.006Z,92103.27
2022-11-22T02:04:38.635Z,92097.52
2022-11-22T02:05:24.472Z,92104.25
2022-11-22T02:05:58.445Z,92104.58
2022-11-22T02:06:44.580Z,92102.84
2022-11-22T02:07:41.288Z,92103.70
2022-11-22T02:08:42.242Z,92101.84
2022-11-22T02:09:17.145Z,92096.97
2022-11-22T02:09:52.857Z,92099.38
2022-11-22T02:10:29.245Z,92100.71
2022-11-22T02:11:03.937Z,92099.30
2022-11-22T02:11:40.935Z,92100.72
2022-11-22T02:12:17.507Z,92098.45
2022-11-22T02:12:52.073Z,92102.48
2022-11-22T02:13:27.026Z,92101.65
2022-11-22T02:14:07.094Z,92100.14
2022-11-22T02:14:43.685Z,92101.45
2022-11-22T02:15:17.103Z,92100.97
2022-11-22T02:15:52.186Z,92106.58
2022-11-22T02:16:25.851Z,92099.19
2022-11-22T02:16:59.156Z,92102.94
2022-11-22T02:17:32.424Z,92101.02
2022-11-22T02:18:06.837Z,92094.64
2022-11-22T02:18:40.402Z,92095.66
2022-11-22T02:19:38.976Z,92097.41
2022-11-22T02:20:17.451Z,92090.33
2022-11-22T02:20:51.178Z,92091.16
2022-11-22T02:21:24.614Z,92090.96
2022-11-22T02:22:07.354Z,92086.41
2022-11-22T02:22:52.291Z,92065.36
2022-11-22T02:23:35.053Z,92081.67
2022-11-22T02:24:25.422Z,92082.26
2022-11-22T02:25:13.132Z,92084.17
2022-11-22T02:25:59.495Z,92086.34
2022-11-22T02:26:33.262Z,92088.37
2022-11-22T02:27:06.828Z,92085.23
2022-11-22T02:27:40.322Z,92086.95
2022-11-22T02:28:14.115Z,92086.95
2022-11-22T02:28:48.598Z,92086.90
2022-11-22T02:29:22.357Z,92085.95
2022-11-22T02:29:55.798Z,92082.05
2022-11-22T02:30:29.195Z,92081.22
2022-11-22T02:31:02.756Z,92086.59
2022-11-22T02:31:38.121Z,92084.02
2022-11-22T02:32:11.326Z,92081.88
2022-11-22T02:32:45.158Z,92080.20
2022-11-22T02:33:18.535Z,92081.17
2022-11-22T02:33:51.766Z,92081.01
2022-11-22T02:34:25.110Z,92080.93
2022-11-22T02:34:58.499Z,92086.59
2022-11-22T02:35:32.435Z,92085.20
2022-11-22T02:36:05.793Z,92084.88
2022-11-22T02:36:44.453Z,92088.25
2022-11-22T02:37:24.266Z,92090.86
2022-11-22T02:38:00.414Z,92094.77
2022-11-22T02:38:35.619Z,92094.54
2022-11-22T02:39:11.925Z,92089.77
2022-11-22T02:39:47.430Z,92087.94
2022-11-22T02:40:22.181Z,92085.93
2022-11-22T02:41:02.490Z,92083.47
2022-11-22T02:41:36.822Z,92085.22
2022-11-22T02:42:10.395Z,92081.00
2022-11-22T02:42:48.804Z,92079.73
2022-11-22T02:43:33.023Z,92080.68
2022-11-22T02:44:11.815Z,92079.64
2022-11-22T02:44:48.281Z,92080.77
2022-11-22T02:45:27.990Z,92079.35
2022-11-22T02:46:09.721Z,92080.70
2022-11-22T02:46:51.352Z,92081.29
2022-11-22T02:47:24.736Z,92080.17
2022-11-22T02:48:13.595Z,92078.30
2022-11-22T02:48:47.752Z,92077.42
2022-11-22T02:49:23.716Z,92074.85
2022-11-22T02:49:57.002Z,92073.52
2022-11-22T02:50:30.505Z,92073.55
2022-11-22T02:51:05.228Z,92073.00
2022-11-22T02:51:38.572Z,92067.67
2022-11-22T02:52:18.195Z,92068.59
2022-11-22T02:52:51.503Z,92066.41
2022-11-22T02:53:25.536Z,92066.83
2022-11-22T02:53:58.779Z,92068.05
2022-11-22T02:54:32.107Z,92072.61
2022-11-22T02:55:05.930Z,92068.66
2022-11-22T02:55:43.117Z,92070.13
2022-11-22T02:56:18.554Z,92069.97
2022-11-22T02:56:55.511Z,92069.56
2022-11-22T02:57:32.339Z,92060.17
2022-11-22T02:58:08.746Z,92068.55
2022-11-22T02:58:43.031Z,92069.77
2022-11-22T02:59:16.671Z,92071.84
2022-11-22T02:59:50.143Z,92067.50
2022-11-22T03:00:25.427Z,92071.41
2022-11-22T03:00:58.955Z,92069.10
2022-11-22T03:01:32.348Z,92068.27
2022-11-22T03:02:05.722Z,92066.67
2022-11-22T03:02:39.035Z,92068.48
2022-11-22T03:03:12.526Z,92067.84
2022-11-22T03:03:48.573Z,92067.26
2022-11-22T03:04:27.357Z,92067.55
2022-11-22T03:05:00.816Z,92064.66
2022-11-22T03:05:37.070Z,92068.78
2022-11-22T03:06:10.521Z,92071.02
2022-11-22T03:06:43.824Z,92072.23
2022-11-22T03:07:17.770Z,92063.88
2022-11-22T03:07:51.454Z,92071.15
2022-11-22T03:08:26.716Z,92068.03
2022-11-22T03:09:02.239Z,92071.67
2022-11-22T03:09:35.900Z,92073.70
2022-11-22T03:10:11.862Z,92073.23
2022-11-22T03:10:45.497Z,92073.34
2022-11-22T03:11:18.776Z,92073.80
2022-11-22T03:11:52.901Z,92072.52
2022-11-22T03:12:26.200Z,92073.59
2022-11-22T03:12:59.963Z,92073.23
2022-11-22T03:13:33.258Z,92070.86
2022-11-22T03:14:06.597Z,92076.06
2022-11-22T03:14:39.890Z,92078.05
2022-11-22T03:15:13.290Z,92075.32
2022-11-22T03:15:49.244Z,92076.67
2022-11-22T03:16:22.476Z,92078.83
2022-11-22T03:16:55.781Z,92080.36
2022-11-22T03:17:29.188Z,92083.45
2022-11-22T03:18:04.020Z,92083.16
2022-11-22T03:18:37.941Z,92080.37
2022-11-22T03:19:11.763Z,92085.09
2022-11-22T03:19:44.936Z,92084.16
2022-11-22T03:20:18.412Z,92082.65
2022-11-22T03:20:54.946Z,92086.41
2022-11-22T03:21:28.350Z,92082.16
2022-11-22T03:22:01.660Z,92085.70
2022-11-22T03:22:35.276Z,92087.95
2022-11-22T03:23:19.785Z,92085.65
2022-11-22T03:23:55.061Z,92084.73
2022-11-22T03:24:28.529Z,92087.81
2022-11-22T03:25:02.048Z,92084.11
2022-11-22T03:25:38.420Z,92080.05
2022-11-22T03:26:12.410Z,92080.22
2022-11-22T03:26:49.911Z,92080.88
2022-11-22T03:27:26.115Z,92083.73
2022-11-22T03:28:01.858Z,92076.86
2022-11-22T03:28:35.438Z,92076.94
2022-11-22T03:29:08.793Z,92082.92
2022-11-22T03:29:42.149Z,92082.77
2022-11-22T03:30:15.851Z,92084.82
2022-11-22T03:30:49.394Z,92082.05
2022-11-22T03:31:25.346Z,92084.38
2022-11-22T03:32:01.527Z,92078.80
2022-11-22T03:32:35.056Z,92079.51
2022-11-22T03:33:11.048Z,92078.64
2022-11-22T03:33:44.411Z,92078.58
2022-11-22T03:34:20.645Z,92079.98
2022-11-22T03:34:54.098Z,92077.54
2022-11-22T03:35:27.597Z,92084.07
2022-11-22T03:36:04.048Z,92085.09
2022-11-22T03:36:37.730Z,92081.92
2022-11-22T03:37:11.020Z,92081.67
2022-11-22T03:37:44.948Z,92084.02
2022-11-22T03:38:18.161Z,92084.48
2022-11-22T03:38:54.282Z,92085.51
2022-11-22T03:39:27.838Z,92088.39
2022-11-22T03:40:01.571Z,92090.02
2022-11-22T03:40:36.146Z,92087.89
2022-11-22T03:41:09.479Z,92084.73
2022-11-22T03:41:42.958Z,92083.83
2022-11-22T03:42:21.240Z,92083.16
2022-11-22T03:42:55.441Z,92084.46
2022-11-22T03:43:28.722Z,92085.48
2022-11-22T03:44:02.272Z,92086.94
2022-11-22T03:44:35.557Z,92067.85
2022-11-22T03:45:15.227Z,92081.61
2022-11-22T03:45:49.459Z,92082.20
2022-11-22T03:46:25.364Z,92077.52
2022-11-22T03:46:59.071Z,92085.31
2022-11-22T03:47:34.896Z,92086.27
2022-11-22T03:48:14.980Z,92085.98
2022-11-22T03:48:48.495Z,92070.23
2022-11-22T03:49:25.412Z,92083.86
2022-11-22T03:49:58.781Z,92083.81
2022-11-22T03:50:32.225Z,92083.34
2022-11-22T03:51:07.087Z,92082.34
2022-11-22T03:51:40.340Z,92084.59
2022-11-22T03:52:13.509Z,92082.09
2022-11-22T03:52:46.899Z,92080.75
2022-11-22T03:53:20.310Z,92082.50
2022-11-22T03:53:53.910Z,92083.47
2022-11-22T03:54:27.245Z,92082.09
2022-11-22T03:55:00.692Z,92081.48
2022-11-22T03:55:34.087Z,92078.34
2022-11-22T03:56:07.316Z,92080.14
2022-11-22T03:56:40.550Z,92076.08
2022-11-22T03:57:13.803Z,92077.91
2022-11-22T03:57:47.012Z,92075.83
2022-11-22T03:58:20.840Z,92077.39
2022-11-22T03:58:54.209Z,92074.23
2022-11-22T03:59:27.714Z,92074.73
2022-11-22T04:00:01.244Z,92077.98
2022-11-22T04:00:35.281Z,92076.89
2022-11-22T04:01:12.096Z,92075.86
2022-11-22T04:01:49.806Z,92080.26
2022-11-22T04:02:23.303Z,92081.56
2022-11-22T04:02:59.232Z,92078.17
2022-11-22T04:03:34.693Z,92083.14
2022-11-22T04:04:08.190Z,92086.23
2022-11-22T04:04:41.391Z,92086.77
2022-11-22T04:05:14.618Z,92080.76
2022-11-22T04:05:47.775Z,92086.13
2022-11-22T04:06:21.075Z,92086.13
2022-11-22T04:06:54.360Z,92089.40
2022-11-22T04:07:27.840Z,92090.55
2022-11-22T04:08:01.266Z,92090.12
2022-11-22T04:08:34.885Z,92086.77
2022-11-22T04:09:08.372Z,92087.84
2022-11-22T04:09:41.745Z,92087.13
2022-11-22T04:10:17.774Z,92088.31
2022-11-22T04:10:54.207Z,92090.05
2022-11-22T04:11:30.441Z,92088.70
2022-11-22T04:12:07.055Z,92089.17
2022-11-22T04:12:40.797Z,92084.93
2022-11-22T04:13:13.976Z,92085.74
2022-11-22T04:14:05.750Z,92084.69
2022-11-22T04:14:57.942Z,92086.20
2022-11-22T04:15:31.219Z,92086.23
2022-11-22T04:16:04.624Z,92083.95
2022-11-22T04:16:38.003Z,92086.92
2022-11-22T04:17:16.150Z,92087.91
2022-11-22T04:17:49.485Z,92083.20
2022-11-22T04:18:22.752Z,92085.26
2022-11-22T04:18:56.122Z,92083.70
2022-11-22T04:19:29.834Z,92086.92
2022-11-22T04:20:22.139Z,92090.55
2022-11-22T04:21:13.849Z,92088.73
2022-11-22T04:21:47.091Z,92091.29
2022-11-22T04:22:20.916Z,92093.30
2022-11-22T04:23:01.667Z,92098.92
2022-11-22T04:23:34.965Z,92093.45
2022-11-22T04:24:29.225Z,92091.02
2022-11-22T04:25:14.453Z,92092.00
2022-11-22T04:25:50.258Z,92092.70
2022-11-22T04:26:24.200Z,92094.88
2022-11-22T04:26:58.189Z,92096.67
2022-11-22T04:27:31.481Z,92095.85
2022-11-22T04:28:06.760Z,92094.02
2022-11-22T04:29:08.181Z,92093.25
2022-11-22T04:29:33.394Z,92095.86
2022-11-22T04:30:07.231Z,92098.11
2022-11-22T04:30:59.516Z,92100.24
2022-11-22T04:31:51.722Z,92103.48
2022-11-22T04:32:43.776Z,92099.26
2022-11-22T04:33:18.141Z,92099.63
2022-11-22T04:33:51.370Z,92098.39
2022-11-22T04:34:24.707Z,92097.29
2022-11-22T04:34:58.291Z,92097.47
2022-11-22T04:35:31.533Z,92097.20
2022-11-22T04:36:08.890Z,92097.67
2022-11-22T04:36:45.110Z,92099.92
2022-11-22T04:37:18.811Z,92095.66
2022-11-22T04:37:52.280Z,92098.52
2022-11-22T04:38:26.155Z,92097.86
2022-11-22T04:38:59.404Z,92097.59
2022-11-22T04:39:33.407Z,92103.24
2022-11-22T04:40:07.599Z,92101.02
2022-11-22T04:40:41.273Z,92099.39
2022-11-22T04:41:14.515Z,92104.27
2022-11-22T04:41:47.937Z,92103.06
2022-11-22T04:42:39.898Z,92101.86
2022-11-22T04:43:43.678Z,92100.05
2022-11-22T04:44:35.655Z,92100.36
2022-11-22T04:45:09.820Z,92099.89
2022-11-22T04:45:43.471Z,92094.70
2022-11-22T04:46:16.935Z,92101.00
2022-11-22T04:46:50.239Z,92100.98
2022-11-22T04:47:45.014Z,92100.83
2022-11-22T04:48:22.771Z,92100.89
2022-11-22T04:48:56.278Z,92099.33
2022-11-22T04:49:29.913Z,92098.54
2022-11-22T04:50:04.990Z,92100.71
2022-11-22T04:50:58.199Z,92101.14
2022-11-22T04:51:49.970Z,92100.90
2022-11-22T04:52:41.798Z,92098.88
2022-11-22T04:53:16.066Z,92100.46
2022-11-22T04:53:49.512Z,92100.50
2022-11-22T04:54:23.486Z,92098.51
2022-11-22T04:54:56.788Z,92099.98
2022-11-22T04:55:31.166Z,92103.70
2022-11-22T04:56:04.697Z,92100.05
2022-11-22T04:56:37.838Z,92099.17
2022-11-22T04:57:11.149Z,92098.02
2022-11-22T04:57:44.485Z,92099.55
2022-11-22T04:58:18.349Z,92101.86
2022-11-22T04:58:51.711Z,92099.10
2022-11-22T04:59:25.099Z,92098.10
2022-11-22T04:59:58.502Z,92101.94
2022-11-22T05:00:32.702Z,92099.70
2022-11-22T05:01:06.167Z,92101.17
2022-11-22T05:01:39.544Z,92102.52
2022-11-22T05:02:12.886Z,92099.66
2022-11-22T05:02:46.437Z,92096.75
2022-11-22T05:03:22.193Z,92095.59
2022-11-22T05:03:56.810Z,92095.79
2022-11-22T05:04:30.189Z,92093.83
2022-11-22T05:05:03.754Z,92095.55
2022-11-22T05:05:39.636Z,92097.51
2022-11-22T05:06:17.616Z,92095.80
2022-11-22T05:06:51.641Z,92096.27
2022-11-22T05:07:24.885Z,92092.91
2022-11-22T05:07:59.208Z,92092.45
2022-11-22T05:08:33.077Z,92090.56
2022-11-22T05:09:06.331Z,92092.73
2022-11-22T05:09:39.870Z,92093.55
2022-11-22T05:10:13.334Z,92087.83
2022-11-22T05:10:57.170Z,92088.20
2022-11-22T05:11:30.570Z,92082.16
2022-11-22T05:12:04.137Z,92089.91
2022-11-22T05:12:37.430Z,92087.50
2022-11-22T05:13:10.691Z,92087.52
2022-11-22T05:13:45.267Z,92086.46
2022-11-22T05:14:18.659Z,92086.58
2022-11-22T05:14:52.304Z,92086.80
2022-11-22T05:15:25.697Z,92088.17
2022-11-22T05:16:00.282Z,92085.84
2022-11-22T05:16:33.527Z,92085.07
2022-11-22T05:17:09.383Z,92085.77
2022-11-22T05:17:44.988Z,92082.99
2022-11-22T05:18:20.084Z,92087.92
2022-11-22T05:19:02.158Z,92088.55
2022-11-22T05:19:35.350Z,92087.70
2022-11-22T05:20:09.631Z,92089.89
2022-11-22T05:20:42.897Z,92089.29
2022-11-22T05:21:16.326Z,92087.17
2022-11-22T05:21:49.626Z,92088.88
2022-11-22T05:22:42.820Z,92086.55
2022-11-22T05:23:35.262Z,92087.42
2022-11-22T05:24:08.838Z,92091.04
2022-11-22T05:24:42.144Z,92090.56
2022-11-22T05:25:15.588Z,92087.83
2022-11-22T05:25:48.958Z,92091.75
2022-11-22T05:26:27.642Z,92091.10
2022-11-22T05:27:02.188Z,92093.04
2022-11-22T05:27:35.579Z,92092.59
2022-11-22T05:28:10.113Z,92090.83
2022-11-22T05:28:43.397Z,92093.08
2022-11-22T05:29:16.653Z,92094.46
2022-11-22T05:29:50.406Z,92094.15
2022-11-22T05:30:24.454Z,92093.95
2022-11-22T05:31:05.994Z,92094.52
2022-11-22T05:31:40.132Z,92098.29
2022-11-22T05:32:13.507Z,92094.95
2022-11-22T05:32:46.705Z,92097.95
2022-11-22T05:33:20.065Z,92103.52
2022-11-22T05:33:57.280Z,92105.40
2022-11-22T05:34:30.870Z,92110.75
2022-11-22T05:35:04.227Z,92109.30
2022-11-22T05:35:37.525Z,92109.99
2022-11-22T05:36:12.372Z,92111.59
2022-11-22T05:36:46.111Z,92115.34
2022-11-22T05:37:19.872Z,92117.48
2022-11-22T05:37:53.096Z,92114.33
2022-11-22T05:38:27.064Z,92116.77
2022-11-22T05:39:01.074Z,92114.96
2022-11-22T05:39:34.482Z,92118.48
2022-11-22T05:40:08.649Z,92120.88
2022-11-22T05:40:42.160Z,92122.29
2022-11-22T05:41:16.707Z,92124.66
2022-11-22T05:41:56.297Z,92125.17
2022-11-22T05:42:29.664Z,92122.52
2022-11-22T05:43:02.971Z,92119.65
2022-11-22T05:43:36.654Z,92119.27
2022-11-22T05:44:10.036Z,92118.19
2022-11-22T05:44:43.281Z,92121.71
2022-11-22T05:45:16.719Z,92118.98
2022-11-22T05:45:49.954Z,92125.86
2022-11-22T05:46:26.574Z,92127.17
2022-11-22T05:47:00.511Z,92123.55
2022-11-22T05:47:35.766Z,92127.66
2022-11-22T05:48:09.107Z,92126.87
2022-11-22T05:48:44.622Z,92130.80
2022-11-22T05:49:17.922Z,92125.80
2022-11-22T05:49:51.186Z,92126.88
2022-11-22T05:50:24.644Z,92126.38
2022-11-22T05:51:05.686Z,92129.27
2022-11-22T05:51:38.993Z,92130.02
2022-11-22T05:52:12.693Z,92127.04
2022-11-22T05:52:46.196Z,92127.38
2022-11-22T05:53:19.498Z,92126.85
2022-11-22T05:53:53.107Z,92123.88
2022-11-22T05:54:26.441Z,92124.55
2022-11-22T05:54:59.810Z,92119.78
2022-11-22T05:55:33.682Z,92128.11
2022-11-22T05:56:18.755Z,92125.29
2022-11-22T05:56:52.272Z,92127.07
2022-11-22T05:57:26.186Z,92125.52
2022-11-22T05:58:01.576Z,92125.51
2022-11-22T05:58:35.804Z,92131.45
2022-11-22T05:59:09.134Z,92126.66
2022-11-22T05:59:44.331Z,92130.36
2022-11-22T06:00:18.668Z,92127.41
2022-11-22T06:00:52.490Z,92124.76
2022-11-22T06:01:26.147Z,92130.39
2022-11-22T06:01:59.624Z,92130.46
2022-11-22T06:02:33.078Z,92132.59
2022-11-22T06:03:16.377Z,92134.34
2022-11-22T06:03:57.256Z,92134.83
2022-11-22T06:04:30.618Z,92139.50
2022-11-22T06:05:04.218Z,92140.42
2022-11-22T06:05:37.496Z,92138.70
2022-11-22T06:06:11.573Z,92139.04
2022-11-22T06:06:48.081Z,92142.47
2022-11-22T06:07:21.465Z,92143.48
2022-11-22T06:07:58.422Z,92144.86
2022-11-22T06:08:33.490Z,92146.59
2022-11-22T06:09:06.762Z,92148.05
2022-11-22T06:09:40.083Z,92151.36
2022-11-22T06:10:13.581Z,92153.77
2022-11-22T06:10:47.050Z,92154.81
2022-11-22T06:11:22.714Z,92151.52
2022-11-22T06:11:56.131Z,92159.20
2022-11-22T06:12:29.696Z,92156.41
2022-11-22T06:13:03.106Z,92159.31
2022-11-22T06:13:38.599Z,92160.39
2022-11-22T06:14:11.954Z,92164.43
2022-11-22T06:14:46.826Z,92164.63
2022-11-22T06:15:20.975Z,92164.17
2022-11-22T06:16:00.403Z,92165.80
2022-11-22T06:16:33.803Z,92166.36
2022-11-22T06:17:07.079Z,92165.17
2022-11-22T06:17:40.429Z,92165.30
2022-11-22T06:18:13.694Z,92165.55
2022-11-22T06:18:48.164Z,92171.39
2022-11-22T06:19:21.753Z,92172.85
2022-11-22T06:19:55.342Z,92164.52
2022-11-22T06:20:28.708Z,92161.31
2022-11-22T06:21:04.272Z,92170.70
2022-11-22T06:21:37.756Z,92169.35
2022-11-22T06:22:11.102Z,92174.17
2022-11-22T06:22:44.466Z,92174.77
2022-11-22T06:23:17.845Z,92173.73
2022-11-22T06:23:53.714Z,92178.48
2022-11-22T06:24:27.152Z,92179.39
2022-11-22T06:25:00.432Z,92181.06
2022-11-22T06:25:33.958Z,92182.52
2022-11-22T06:26:10.151Z,92189.89
2022-11-22T06:26:43.456Z,92184.84
2022-11-22T06:27:17.168Z,92191.47
2022-11-22T06:27:50.582Z,92193.39
2022-11-22T06:28:23.858Z,92197.27
2022-11-22T06:28:59.542Z,92200.67
2022-11-22T06:29:33.376Z,92200.19
2022-11-22T06:30:07.575Z,92199.89
2022-11-22T06:30:40.872Z,92200.36
2022-11-22T06:31:27.372Z,92201.39
2022-11-22T06:32:03.812Z,92195.77
2022-11-22T06:32:37.328Z,92194.15
2022-11-22T06:33:10.560Z,92196.10
2022-11-22T06:33:44.754Z,92192.93
2022-11-22T06:34:18.707Z,92195.06
2022-11-22T06:34:52.247Z,92191.60
2022-11-22T06:35:26.332Z,92192.17
2022-11-22T06:36:04.530Z,92189.73
2022-11-22T06:36:39.023Z,92193.42
2022-11-22T06:37:16.230Z,92191.73
2022-11-22T06:37:49.650Z,92190.82
2022-11-22T06:38:22.972Z,92193.62
2022-11-22T06:38:57.171Z,92191.96
2022-11-22T06:39:30.995Z,92194.38
2022-11-22T06:40:07.531Z,92192.00
2022-11-22T06:40:41.054Z,92195.85
2022-11-22T06:41:16.969Z,92200.48
2022-11-22T06:41:53.006Z,92202.00
2022-11-22T06:42:26.677Z,92203.67
2022-11-22T06:43:00.120Z,92207.46
2022-11-22T06:43:34.799Z,92205.85
2022-11-22T06:44:09.702Z,92207.94
2022-11-22T06:44:42.917Z,92210.50
2022-11-22T06:45:16.486Z,92213.39
2022-11-22T06:45:49.848Z,92213.42
2022-11-22T06:46:26.460Z,92215.36
2022-11-22T06:47:00.566Z,92214.55
2022-11-22T06:47:34.020Z,92216.45
2022-11-22T06:48:07.377Z,92218.02
2022-11-22T06:48:41.840Z,92215.84
2022-11-22T06:50:46.915Z,92220.39
2022-11-22T06:51:25.617Z,92218.89
2022-11-22T06:51:58.925Z,92220.48
2022-11-22T06:52:32.216Z,92217.14
2022-11-22T06:53:05.411Z,92214.23
2022-11-22T06:53:47.283Z,92213.69
2022-11-22T06:54:21.352Z,92214.30
2022-11-22T06:54:54.764Z,92214.82
2022-11-22T06:55:49.634Z,92211.60
2022-11-22T06:56:24.065Z,92213.23
2022-11-22T06:56:57.352Z,92211.87
2022-11-22T06:57:30.636Z,92214.59
2022-11-22T06:58:03.876Z,92211.98
2022-11-22T06:58:37.780Z,92211.81
2022-11-22T06:59:11.022Z,92208.77
2022-11-22T06:59:44.298Z,92210.06
2022-11-22T07:00:19.675Z,92208.94
2022-11-22T07:00:53.123Z,92203.14
2022-11-22T07:01:28.475Z,92207.18
2022-11-22T07:02:06.340Z,92202.48